Featured Flight

MET2281 - Kansas City to Oklahoma City

Bombardier Dash-8-Q200
835AG
1 hr 20 mins
272 nm
Scheduled - Daily

Bid/PiRep Status

Bid was submitted on Oct 21 2016.

PiRep # 73801: Approved by Dave Nichols on October 26th, 2016 21:43 UTC

Departure

Departing from
Kansas City (MCI)
Departure gate
Scheduled Departure
GMT 1400
Local 0900
METAR KMCI 260253Z 12007KT 10SM FEW150 20/13 A2965 RMK AO2 SLP034 T02000133 53027
TAF KMCI 252325Z 2600/2624 15011KT P6SM FEW100 FM260700 15008KT P6SM VCSH BKN050 FM260900 15008KT P6SM FEW100 FM261500 25007KT P6SM BKN035 FM261800 32007KT P6SM BKN035

Arrival

Arriving at
Oklahoma City (OKC)
Arrival gate
8
Scheduled Arrival
GMT 1520
Local 1020

Route Map

Planning Resources

WLDCT2 GULLI1
DOSOA J25 TUL GULLI
â– RACER3 DOSOA TUL TRUMP5
KMCI DOSOA TUL DWINE KOKC
DOSOA WP1 TUL KOKC
Route:
OFP Layout:
Units:
Detailed Navlog:
ETOPS Planning:
Plan Stepclimbs:
Runway Analysis:
Include NOTAMS:
FIR NOTAMS:
Flight Maps:

Return Flights

MET2282
Bombardier Dash-8-Q200
1550 GMT
MET2286
Bombardier Dash-8-Q200
2230 GMT
MET3421
Bombardier Dash-8-Q400
1235 GMT
MET3423
Bombardier Dash-8-Q400
1940 GMT

Popularity

Hub Current Bids PiReps this month Total PiReps
KMCI 0 0 2
KLAX 0 0 0
KBOS 0 0 0